sensor_id;sensor_type;location;lat;lon;timestamp;temperature;humidity
9486;DHT22;4781;48.776;9.200;2022-11-15T00:01:20;9.10;99.90
9486;DHT22;4781;48.776;9.200;2022-11-15T00:03:50;9.10;99.90
9486;DHT22;4781;48.776;9.200;2022-11-15T00:06:19;9.20;99.90
9486;DHT22;4781;48.776;9.200;2022-11-15T00:08:47;9.30;99.90
9486;DHT22;4781;48.776;9.200;2022-11-15T00:11:16;9.30;99.90
9486;DHT22;4781;48.776;9.200;2022-11-15T00:13:44;9.30;99.90
9486;DHT22;4781;48.776;9.200;2022-11-15T00:16:12;9.30;99.90
9486;DHT22;4781;48.776;9.200;2022-11-15T00:18:41;9.30;99.90
9486;DHT22;4781;48.776;9.200;2022-11-15T00:21:13;9.30;99.90
9486;DHT22;4781;48.776;9.200;2022-11-15T00:23:42;9.30;99.90
9486;DHT22;4781;48.776;9.200;2022-11-15T00:26:14;9.20;99.90
9486;DHT22;4781;48.776;9.200;2022-11-15T00:28:43;9.20;99.90
9486;DHT22;4781;48.776;9.200;2022-11-15T00:31:13;9.10;99.90
9486;DHT22;4781;48.776;9.200;2022-11-15T00:33:43;9.10;99.90
9486;DHT22;4781;48.776;9.200;2022-11-15T00:36:12;9.10;99.90
9486;DHT22;4781;48.776;9.200;2022-11-15T00:38:41;9.10;99.90
9486;DHT22;4781;48.776;9.200;2022-11-15T00:41:09;9.10;99.90
9486;DHT22;4781;48.776;9.200;2022-11-15T00:43:38;9.10;99.90
9486;DHT22;4781;48.776;9.200;2022-11-15T00:46:06;9.10;99.90
9486;DHT22;4781;48.776;9.200;2022-11-15T00:48:36;9.20;99.90
9486;DHT22;4781;48.776;9.200;2022-11-15T00:51:05;9.10;99.90
9486;DHT22;4781;48.776;9.200;2022-11-15T00:53:33;9.10;99.90
9486;DHT22;4781;48.776;9.200;2022-11-15T00:56:02;9.10;99.90
9486;DHT22;4781;48.776;9.200;2022-11-15T00:58:30;9.10;99.90
9486;DHT22;4781;48.776;9.200;2022-11-15T01:01:13;9.10;99.90
9486;DHT22;4781;48.776;9.200;2022-11-15T01:03:42;9.10;99.90
9486;DHT22;4781;48.776;9.200;2022-11-15T01:06:10;9.10;99.90
9486;DHT22;4781;48.776;9.200;2022-11-15T01:08:39;9.10;99.90
9486;DHT22;4781;48.776;9.200;2022-11-15T01:11:10;9.10;99.90
9486;DHT22;4781;48.776;9.200;2022-11-15T01:13:39;9.00;99.90
9486;DHT22;4781;48.776;9.200;2022-11-15T01:16:11;9.00;99.90
9486;DHT22;4781;48.776;9.200;2022-11-15T01:18:40;9.00;99.90
9486;DHT22;4781;48.776;9.200;2022-11-15T01:21:10;9.00;99.90
9486;DHT22;4781;48.776;9.200;2022-11-15T01:23:41;9.00;99.90
9486;DHT22;4781;48.776;9.200;2022-11-15T01:26:12;9.00;99.90
9486;DHT22;4781;48.776;9.200;2022-11-15T01:28:42;9.00;99.90
9486;DHT22;4781;48.776;9.200;2022-11-15T01:31:13;8.90;99.90
9486;DHT22;4781;48.776;9.200;2022-11-15T01:33:45;8.90;99.90
9486;DHT22;4781;48.776;9.200;2022-11-15T01:36:17;8.90;99.90
9486;DHT22;4781;48.776;9.200;2022-11-15T01:38:55;8.80;99.90
9486;DHT22;4781;48.776;9.200;2022-11-15T01:41:27;8.80;99.90
9486;DHT22;4781;48.776;9.200;2022-11-15T01:47:01;8.70;99.90
9486;DHT22;4781;48.776;9.200;2022-11-15T01:49:33;8.70;99.90
9486;DHT22;4781;48.776;9.200;2022-11-15T01:52:05;8.70;99.90
9486;DHT22;4781;48.776;9.200;2022-11-15T01:54:35;8.70;99.90
9486;DHT22;4781;48.776;9.200;2022-11-15T01:57:11;8.60;99.90
9486;DHT22;4781;48.776;9.200;2022-11-15T01:59:42;8.50;99.90
9486;DHT22;4781;48.776;9.200;2022-11-15T02:02:12;8.50;99.90
9486;DHT22;4781;48.776;9.200;2022-11-15T02:04:43;8.50;99.90
9486;DHT22;4781;48.776;9.200;2022-11-15T02:07:17;8.50;99.90
9486;DHT22;4781;48.776;9.200;2022-11-15T02:09:47;8.50;99.90
9486;DHT22;4781;48.776;9.200;2022-11-15T02:12:19;8.40;99.90
9486;DHT22;4781;48.776;9.200;2022-11-15T02:14:50;8.40;99.90
9486;DHT22;4781;48.776;9.200;2022-11-15T02:20:37;8.40;99.90
9486;DHT22;4781;48.776;9.200;2022-11-15T02:23:49;8.40;99.90
9486;DHT22;4781;48.776;9.200;2022-11-15T02:35:42;8.40;99.90
9486;DHT22;4781;48.776;9.200;2022-11-15T02:38:46;8.40;99.90
9486;DHT22;4781;48.776;9.200;2022-11-15T02:41:25;8.40;99.90
9486;DHT22;4781;48.776;9.200;2022-11-15T02:46:51;8.40;99.90
9486;DHT22;4781;48.776;9.200;2022-11-15T02:49:46;8.40;99.90
9486;DHT22;4781;48.776;9.200;2022-11-15T02:52:20;8.30;99.90
9486;DHT22;4781;48.776;9.200;2022-11-15T02:54:59;8.30;99.90
9486;DHT22;4781;48.776;9.200;2022-11-15T03:01:04;8.40;99.90
9486;DHT22;4781;48.776;9.200;2022-11-15T03:03:59;8.40;99.90
9486;DHT22;4781;48.776;9.200;2022-11-15T03:09:40;8.40;99.90
9486;DHT22;4781;48.776;9.200;2022-11-15T03:13:32;8.40;99.90
9486;DHT22;4781;48.776;9.200;2022-11-15T03:15:22;8.40;99.90
9486;DHT22;4781;48.776;9.200;2022-11-15T03:18:12;8.30;99.90
9486;DHT22;4781;48.776;9.200;2022-11-15T03:20:37;8.30;99.90
9486;DHT22;4781;48.776;9.200;2022-11-15T03:23:09;8.20;99.90
9486;DHT22;4781;48.776;9.200;2022-11-15T03:25:44;8.20;99.90
9486;DHT22;4781;48.776;9.200;2022-11-15T03:28:19;8.20;99.90
9486;DHT22;4781;48.776;9.200;2022-11-15T03:30:50;8.20;99.90
9486;DHT22;4781;48.776;9.200;2022-11-15T03:33:20;8.10;99.90
9486;DHT22;4781;48.776;9.200;2022-11-15T03:35:50;8.10;99.90
9486;DHT22;4781;48.776;9.200;2022-11-15T03:38:24;8.10;99.90
9486;DHT22;4781;48.776;9.200;2022-11-15T03:40:58;8.30;99.90
9486;DHT22;4781;48.776;9.200;2022-11-15T03:43:35;8.40;99.90
9486;DHT22;4781;48.776;9.200;2022-11-15T03:46:28;8.40;99.90
9486;DHT22;4781;48.776;9.200;2022-11-15T03:49:15;8.40;99.90
9486;DHT22;4781;48.776;9.200;2022-11-15T03:51:45;8.40;99.90
9486;DHT22;4781;48.776;9.200;2022-11-15T03:54:14;8.30;99.90
9486;DHT22;4781;48.776;9.200;2022-11-15T03:56:42;8.30;99.90
9486;DHT22;4781;48.776;9.200;2022-11-15T03:59:10;8.30;99.90
9486;DHT22;4781;48.776;9.200;2022-11-15T04:01:39;8.40;99.90
9486;DHT22;4781;48.776;9.200;2022-11-15T04:04:07;8.40;99.90
9486;DHT22;4781;48.776;9.200;2022-11-15T04:06:36;8.40;99.90
9486;DHT22;4781;48.776;9.200;2022-11-15T04:09:04;8.40;99.90
9486;DHT22;4781;48.776;9.200;2022-11-15T04:11:32;8.30;99.90
9486;DHT22;4781;48.776;9.200;2022-11-15T04:14:01;8.30;99.90
9486;DHT22;4781;48.776;9.200;2022-11-15T04:16:29;8.40;99.90
9486;DHT22;4781;48.776;9.200;2022-11-15T04:18:58;8.50;99.90
9486;DHT22;4781;48.776;9.200;2022-11-15T04:21:44;8.50;99.90
9486;DHT22;4781;48.776;9.200;2022-11-15T04:24:30;8.50;99.90
9486;DHT22;4781;48.776;9.200;2022-11-15T04:26:59;8.50;99.90
9486;DHT22;4781;48.776;9.200;2022-11-15T04:29:27;8.50;99.90
9486;DHT22;4781;48.776;9.200;2022-11-15T04:32:04;8.50;99.90
9486;DHT22;4781;48.776;9.200;2022-11-15T04:34:33;8.50;99.90
9486;DHT22;4781;48.776;9.200;2022-11-15T04:37:02;8.50;99.90
9486;DHT22;4781;48.776;9.200;2022-11-15T04:39:42;8.60;99.90
9486;DHT22;4781;48.776;9.200;2022-11-15T04:42:11;8.60;99.90
9486;DHT22;4781;48.776;9.200;2022-11-15T04:44:39;8.60;99.90
9486;DHT22;4781;48.776;9.200;2022-11-15T04:47:08;8.50;99.90
9486;DHT22;4781;48.776;9.200;2022-11-15T04:49:36;8.50;99.90
9486;DHT22;4781;48.776;9.200;2022-11-15T04:52:04;8.50;99.90
9486;DHT22;4781;48.776;9.200;2022-11-15T04:54:33;8.60;99.90
9486;DHT22;4781;48.776;9.200;2022-11-15T04:57:01;8.50;99.90
9486;DHT22;4781;48.776;9.200;2022-11-15T04:59:29;8.50;99.90
9486;DHT22;4781;48.776;9.200;2022-11-15T05:01:58;8.50;99.90
9486;DHT22;4781;48.776;9.200;2022-11-15T05:04:26;8.40;99.90
9486;DHT22;4781;48.776;9.200;2022-11-15T05:06:55;8.40;99.90
9486;DHT22;4781;48.776;9.200;2022-11-15T05:09:23;8.40;99.90
9486;DHT22;4781;48.776;9.200;2022-11-15T05:11:51;8.40;99.90
9486;DHT22;4781;48.776;9.200;2022-11-15T05:14:20;8.50;99.90
9486;DHT22;4781;48.776;9.200;2022-11-15T05:16:48;8.50;99.90
9486;DHT22;4781;48.776;9.200;2022-11-15T05:19:16;8.60;99.90
9486;DHT22;4781;48.776;9.200;2022-11-15T05:21:45;8.60;99.90
9486;DHT22;4781;48.776;9.200;2022-11-15T05:24:14;8.60;99.90
9486;DHT22;4781;48.776;9.200;2022-11-15T05:26:42;8.60;99.90
9486;DHT22;4781;48.776;9.200;2022-11-15T05:29:11;8.60;99.90
9486;DHT22;4781;48.776;9.200;2022-11-15T05:31:40;8.60;99.90
9486;DHT22;4781;48.776;9.200;2022-11-15T05:34:08;8.70;99.90
9486;DHT22;4781;48.776;9.200;2022-11-15T05:36:41;8.70;99.90
9486;DHT22;4781;48.776;9.200;2022-11-15T05:39:09;8.70;99.90
9486;DHT22;4781;48.776;9.200;2022-11-15T05:41:40;8.70;99.90
9486;DHT22;4781;48.776;9.200;2022-11-15T05:44:12;8.70;99.90
9486;DHT22;4781;48.776;9.200;2022-11-15T05:46:42;8.70;99.90
9486;DHT22;4781;48.776;9.200;2022-11-15T05:49:13;8.70;99.90
9486;DHT22;4781;48.776;9.200;2022-11-15T05:51:45;8.70;99.90
9486;DHT22;4781;48.776;9.200;2022-11-15T05:54:14;8.70;99.90
9486;DHT22;4781;48.776;9.200;2022-11-15T05:56:44;8.70;99.90
9486;DHT22;4781;48.776;9.200;2022-11-15T05:59:12;8.60;99.90
9486;DHT22;4781;48.776;9.200;2022-11-15T06:01:41;8.60;99.90
9486;DHT22;4781;48.776;9.200;2022-11-15T06:04:10;8.50;99.90
9486;DHT22;4781;48.776;9.200;2022-11-15T06:06:38;8.50;99.90
9486;DHT22;4781;48.776;9.200;2022-11-15T06:09:06;8.50;99.90
9486;DHT22;4781;48.776;9.200;2022-11-15T06:11:35;8.50;99.90
9486;DHT22;4781;48.776;9.200;2022-11-15T06:14:03;8.40;99.90
9486;DHT22;4781;48.776;9.200;2022-11-15T06:16:32;8.40;99.90
9486;DHT22;4781;48.776;9.200;2022-11-15T06:19:01;8.40;99.90
9486;DHT22;4781;48.776;9.200;2022-11-15T06:21:29;8.40;99.90
9486;DHT22;4781;48.776;9.200;2022-11-15T06:23:58;8.40;99.90
9486;DHT22;4781;48.776;9.200;2022-11-15T06:26:26;8.40;99.90
9486;DHT22;4781;48.776;9.200;2022-11-15T06:28:55;8.40;99.90
9486;DHT22;4781;48.776;9.200;2022-11-15T06:31:23;8.40;99.90
9486;DHT22;4781;48.776;9.200;2022-11-15T06:33:51;8.40;99.90
9486;DHT22;4781;48.776;9.200;2022-11-15T06:36:20;8.40;99.90
9486;DHT22;4781;48.776;9.200;2022-11-15T06:38:48;8.40;99.90
9486;DHT22;4781;48.776;9.200;2022-11-15T06:41:17;8.50;99.90
9486;DHT22;4781;48.776;9.200;2022-11-15T06:43:47;8.50;99.90
9486;DHT22;4781;48.776;9.200;2022-11-15T06:46:15;8.60;99.90
9486;DHT22;4781;48.776;9.200;2022-11-15T06:48:44;8.60;99.90
9486;DHT22;4781;48.776;9.200;2022-11-15T06:51:12;8.60;99.90
9486;DHT22;4781;48.776;9.200;2022-11-15T06:53:40;8.70;99.90
9486;DHT22;4781;48.776;9.200;2022-11-15T06:56:09;8.70;99.90
9486;DHT22;4781;48.776;9.200;2022-11-15T06:58:37;8.70;99.90
9486;DHT22;4781;48.776;9.200;2022-11-15T07:01:08;8.80;99.90
9486;DHT22;4781;48.776;9.200;2022-11-15T07:03:40;8.80;99.90
9486;DHT22;4781;48.776;9.200;2022-11-15T07:06:10;8.80;99.90
9486;DHT22;4781;48.776;9.200;2022-11-15T07:08:38;8.90;99.90
9486;DHT22;4781;48.776;9.200;2022-11-15T07:11:09;8.90;99.90
9486;DHT22;4781;48.776;9.200;2022-11-15T07:13:37;9.00;99.90
9486;DHT22;4781;48.776;9.200;2022-11-15T07:16:08;9.00;99.90
9486;DHT22;4781;48.776;9.200;2022-11-15T07:18:39;9.00;99.90
9486;DHT22;4781;48.776;9.200;2022-11-15T07:21:09;9.00;99.90
9486;DHT22;4781;48.776;9.200;2022-11-15T07:23:58;9.00;99.90
9486;DHT22;4781;48.776;9.200;2022-11-15T07:26:26;9.00;99.90
9486;DHT22;4781;48.776;9.200;2022-11-15T07:28:54;9.00;99.90
9486;DHT22;4781;48.776;9.200;2022-11-15T07:31:23;9.10;99.90
9486;DHT22;4781;48.776;9.200;2022-11-15T07:33:51;9.10;99.90
9486;DHT22;4781;48.776;9.200;2022-11-15T07:36:20;9.10;99.90
9486;DHT22;4781;48.776;9.200;2022-11-15T07:38:48;9.20;99.90
9486;DHT22;4781;48.776;9.200;2022-11-15T07:41:17;9.20;99.90
9486;DHT22;4781;48.776;9.200;2022-11-15T07:43:45;9.30;99.90
9486;DHT22;4781;48.776;9.200;2022-11-15T07:46:13;9.40;99.90
9486;DHT22;4781;48.776;9.200;2022-11-15T07:48:42;9.50;99.90
9486;DHT22;4781;48.776;9.200;2022-11-15T07:51:17;9.60;99.90
9486;DHT22;4781;48.776;9.200;2022-11-15T07:53:45;9.70;99.90
9486;DHT22;4781;48.776;9.200;2022-11-15T07:56:13;9.70;99.90
9486;DHT22;4781;48.776;9.200;2022-11-15T07:58:42;9.80;99.90
9486;DHT22;4781;48.776;9.200;2022-11-15T08:01:10;9.90;99.90
9486;DHT22;4781;48.776;9.200;2022-11-15T08:03:39;10.00;99.90
9486;DHT22;4781;48.776;9.200;2022-11-15T08:06:08;10.20;99.90
9486;DHT22;4781;48.776;9.200;2022-11-15T08:08:36;10.30;99.90
9486;DHT22;4781;48.776;9.200;2022-11-15T08:11:04;10.40;99.90
9486;DHT22;4781;48.776;9.200;2022-11-15T08:13:33;10.50;99.90
9486;DHT22;4781;48.776;9.200;2022-11-15T08:16:02;10.60;99.90
9486;DHT22;4781;48.776;9.200;2022-11-15T08:18:31;10.70;99.90
9486;DHT22;4781;48.776;9.200;2022-11-15T08:21:03;10.80;99.90
9486;DHT22;4781;48.776;9.200;2022-11-15T08:23:32;11.00;99.90
9486;DHT22;4781;48.776;9.200;2022-11-15T08:26:02;11.00;99.90
9486;DHT22;4781;48.776;9.200;2022-11-15T08:28:31;11.00;99.90
9486;DHT22;4781;48.776;9.200;2022-11-15T08:31:00;11.10;99.90
9486;DHT22;4781;48.776;9.200;2022-11-15T08:33:29;11.30;99.90
9486;DHT22;4781;48.776;9.200;2022-11-15T08:35:58;11.30;99.90
9486;DHT22;4781;48.776;9.200;2022-11-15T08:38:27;11.30;99.90
9486;DHT22;4781;48.776;9.200;2022-11-15T08:41:01;11.30;99.90
9486;DHT22;4781;48.776;9.200;2022-11-15T08:43:32;11.30;99.90
9486;DHT22;4781;48.776;9.200;2022-11-15T08:46:01;11.20;99.90
9486;DHT22;4781;48.776;9.200;2022-11-15T08:48:29;11.30;99.90
9486;DHT22;4781;48.776;9.200;2022-11-15T08:50:58;11.40;99.90
9486;DHT22;4781;48.776;9.200;2022-11-15T08:53:26;11.40;99.90
9486;DHT22;4781;48.776;9.200;2022-11-15T08:55:55;11.40;99.90
9486;DHT22;4781;48.776;9.200;2022-11-15T08:58:23;11.60;99.90
9486;DHT22;4781;48.776;9.200;2022-11-15T09:00:52;11.50;99.90
9486;DHT22;4781;48.776;9.200;2022-11-15T09:03:20;11.80;99.90
9486;DHT22;4781;48.776;9.200;2022-11-15T09:05:48;12.00;99.90
9486;DHT22;4781;48.776;9.200;2022-11-15T09:08:22;12.10;99.90
9486;DHT22;4781;48.776;9.200;2022-11-15T09:10:51;12.10;99.90
9486;DHT22;4781;48.776;9.200;2022-11-15T09:13:19;12.40;99.90
9486;DHT22;4781;48.776;9.200;2022-11-15T09:15:48;12.60;99.90
9486;DHT22;4781;48.776;9.200;2022-11-15T09:18:16;12.70;99.90
9486;DHT22;4781;48.776;9.200;2022-11-15T09:20:44;12.90;99.90
9486;DHT22;4781;48.776;9.200;2022-11-15T09:23:13;13.00;99.90
9486;DHT22;4781;48.776;9.200;2022-11-15T09:25:41;13.10;99.90
9486;DHT22;4781;48.776;9.200;2022-11-15T09:28:09;13.10;99.90
9486;DHT22;4781;48.776;9.200;2022-11-15T09:30:38;13.20;99.90
9486;DHT22;4781;48.776;9.200;2022-11-15T09:33:08;13.20;99.90
9486;DHT22;4781;48.776;9.200;2022-11-15T09:35:37;13.30;99.90
9486;DHT22;4781;48.776;9.200;2022-11-15T09:38:07;13.40;99.90
9486;DHT22;4781;48.776;9.200;2022-11-15T09:40:37;13.60;99.90
9486;DHT22;4781;48.776;9.200;2022-11-15T09:43:11;13.70;99.90
9486;DHT22;4781;48.776;9.200;2022-11-15T09:46:12;13.80;99.90
9486;DHT22;4781;48.776;9.200;2022-11-15T09:48:49;14.10;99.90
9486;DHT22;4781;48.776;9.200;2022-11-15T09:51:32;14.30;99.90
9486;DHT22;4781;48.776;9.200;2022-11-15T09:54:11;14.50;99.90
9486;DHT22;4781;48.776;9.200;2022-11-15T09:56:41;14.50;99.90
9486;DHT22;4781;48.776;9.200;2022-11-15T10:05:15;14.80;99.90
9486;DHT22;4781;48.776;9.200;2022-11-15T10:08:02;14.90;99.90
9486;DHT22;4781;48.776;9.200;2022-11-15T10:10:49;14.90;99.90
9486;DHT22;4781;48.776;9.200;2022-11-15T10:13:39;15.10;99.90
9486;DHT22;4781;48.776;9.200;2022-11-15T10:16:37;15.10;99.90
9486;DHT22;4781;48.776;9.200;2022-11-15T10:22:24;15.20;99.90
9486;DHT22;4781;48.776;9.200;2022-11-15T10:27:40;15.00;99.90
9486;DHT22;4781;48.776;9.200;2022-11-15T10:30:14;15.00;99.90
9486;DHT22;4781;48.776;9.200;2022-11-15T10:32:44;15.00;99.90
9486;DHT22;4781;48.776;9.200;2022-11-15T10:35:30;14.90;99.90
9486;DHT22;4781;48.776;9.200;2022-11-15T10:38:09;14.80;99.90
9486;DHT22;4781;48.776;9.200;2022-11-15T10:40:40;14.80;99.90
9486;DHT22;4781;48.776;9.200;2022-11-15T10:45:46;14.90;99.90
9486;DHT22;4781;48.776;9.200;2022-11-15T10:48:21;14.80;99.90
9486;DHT22;4781;48.776;9.200;2022-11-15T10:50:51;14.90;99.90
9486;DHT22;4781;48.776;9.200;2022-11-15T10:53:27;14.90;99.90
9486;DHT22;4781;48.776;9.200;2022-11-15T10:56:04;15.00;99.90
9486;DHT22;4781;48.776;9.200;2022-11-15T10:58:36;14.90;99.90
9486;DHT22;4781;48.776;9.200;2022-11-15T11:01:10;14.90;99.90
9486;DHT22;4781;48.776;9.200;2022-11-15T11:03:42;14.90;99.90
9486;DHT22;4781;48.776;9.200;2022-11-15T11:06:14;14.90;99.90
9486;DHT22;4781;48.776;9.200;2022-11-15T11:09:02;14.90;99.90
9486;DHT22;4781;48.776;9.200;2022-11-15T11:11:49;14.90;99.90
9486;DHT22;4781;48.776;9.200;2022-11-15T11:14:23;14.90;99.90
9486;DHT22;4781;48.776;9.200;2022-11-15T11:17:09;14.90;99.90
9486;DHT22;4781;48.776;9.200;2022-11-15T11:22:46;14.90;99.90
9486;DHT22;4781;48.776;9.200;2022-11-15T11:28:54;14.80;99.90
9486;DHT22;4781;48.776;9.200;2022-11-15T11:31:38;14.80;99.90
9486;DHT22;4781;48.776;9.200;2022-11-15T11:42:48;14.80;99.90
9486;DHT22;4781;48.776;9.200;2022-11-15T11:45:41;14.70;99.90
9486;DHT22;4781;48.776;9.200;2022-11-15T11:51:15;14.80;99.90
9486;DHT22;4781;48.776;9.200;2022-11-15T11:56:59;14.80;99.90
9486;DHT22;4781;48.776;9.200;2022-11-15T11:59:43;14.70;99.90
9486;DHT22;4781;48.776;9.200;2022-11-15T12:02:37;14.60;99.90
9486;DHT22;4781;48.776;9.200;2022-11-15T12:08:03;14.70;99.90
9486;DHT22;4781;48.776;9.200;2022-11-15T12:10:34;14.70;99.90
9486;DHT22;4781;48.776;9.200;2022-11-15T12:13:10;14.80;99.90
9486;DHT22;4781;48.776;9.200;2022-11-15T12:18:49;14.90;99.90
9486;DHT22;4781;48.776;9.200;2022-11-15T12:24:01;15.00;99.90
9486;DHT22;4781;48.776;9.200;2022-11-15T12:26:37;14.90;99.90
9486;DHT22;4781;48.776;9.200;2022-11-15T12:34:49;15.00;99.90
9486;DHT22;4781;48.776;9.200;2022-11-15T12:40:24;15.00;99.90
9486;DHT22;4781;48.776;9.200;2022-11-15T12:45:44;15.00;99.90
9486;DHT22;4781;48.776;9.200;2022-11-15T12:50:58;14.90;99.90
9486;DHT22;4781;48.776;9.200;2022-11-15T12:53:30;14.80;99.90
9486;DHT22;4781;48.776;9.200;2022-11-15T12:58:48;14.80;99.90
9486;DHT22;4781;48.776;9.200;2022-11-15T13:07:01;14.80;99.90
9486;DHT22;4781;48.776;9.200;2022-11-15T13:17:45;14.60;99.90
9486;DHT22;4781;48.776;9.200;2022-11-15T13:20:19;14.50;99.90
9486;DHT22;4781;48.776;9.200;2022-11-15T13:23:09;14.50;99.90
9486;DHT22;4781;48.776;9.200;2022-11-15T13:28:36;14.40;99.90
9486;DHT22;4781;48.776;9.200;2022-11-15T13:34:12;14.40;99.90
9486;DHT22;4781;48.776;9.200;2022-11-15T13:36:32;14.40;99.90
9486;DHT22;4781;48.776;9.200;2022-11-15T13:39:26;14.50;99.90
9486;DHT22;4781;48.776;9.200;2022-11-15T13:41:54;14.30;99.90
9486;DHT22;4781;48.776;9.200;2022-11-15T13:44:33;14.30;99.90
9486;DHT22;4781;48.776;9.200;2022-11-15T13:47:13;14.20;99.90
9486;DHT22;4781;48.776;9.200;2022-11-15T13:49:42;14.20;99.90
9486;DHT22;4781;48.776;9.200;2022-11-15T13:52:13;14.20;99.90
9486;DHT22;4781;48.776;9.200;2022-11-15T13:57:28;14.20;99.90
9486;DHT22;4781;48.776;9.200;2022-11-15T14:00:03;14.20;99.90
9486;DHT22;4781;48.776;9.200;2022-11-15T14:02:34;14.20;99.90
9486;DHT22;4781;48.776;9.200;2022-11-15T14:05:15;14.00;99.90
9486;DHT22;4781;48.776;9.200;2022-11-15T14:08:02;14.00;99.90
9486;DHT22;4781;48.776;9.200;2022-11-15T14:10:35;13.90;99.90
9486;DHT22;4781;48.776;9.200;2022-11-15T14:13:40;13.80;99.90
9486;DHT22;4781;48.776;9.200;2022-11-15T14:16:12;13.80;99.90
9486;DHT22;4781;48.776;9.200;2022-11-15T14:18:48;13.70;99.90
9486;DHT22;4781;48.776;9.200;2022-11-15T14:21:18;13.60;99.90
9486;DHT22;4781;48.776;9.200;2022-11-15T14:23:47;13.50;99.90
9486;DHT22;4781;48.776;9.200;2022-11-15T14:26:32;13.40;99.90
9486;DHT22;4781;48.776;9.200;2022-11-15T14:29:26;13.30;99.90
9486;DHT22;4781;48.776;9.200;2022-11-15T14:32:58;13.30;99.90
9486;DHT22;4781;48.776;9.200;2022-11-15T14:34:43;13.20;99.90
9486;DHT22;4781;48.776;9.200;2022-11-15T14:37:22;13.20;99.90
9486;DHT22;4781;48.776;9.200;2022-11-15T14:39:57;13.10;99.90
9486;DHT22;4781;48.776;9.200;2022-11-15T14:42:25;13.10;99.90
9486;DHT22;4781;48.776;9.200;2022-11-15T14:44:54;13.10;99.90
9486;DHT22;4781;48.776;9.200;2022-11-15T14:47:22;13.10;99.90
9486;DHT22;4781;48.776;9.200;2022-11-15T14:49:50;13.00;99.90
9486;DHT22;4781;48.776;9.200;2022-11-15T14:54:59;13.00;99.90
9486;DHT22;4781;48.776;9.200;2022-11-15T14:57:29;12.90;99.90
9486;DHT22;4781;48.776;9.200;2022-11-15T14:59:58;12.90;99.90
9486;DHT22;4781;48.776;9.200;2022-11-15T15:02:27;12.90;99.90
9486;DHT22;4781;48.776;9.200;2022-11-15T15:04:56;12.90;99.90
9486;DHT22;4781;48.776;9.200;2022-11-15T15:07:26;12.90;99.90
9486;DHT22;4781;48.776;9.200;2022-11-15T15:09:54;12.90;99.90
9486;DHT22;4781;48.776;9.200;2022-11-15T15:12:23;12.80;99.90
9486;DHT22;4781;48.776;9.200;2022-11-15T15:14:51;12.90;99.90
9486;DHT22;4781;48.776;9.200;2022-11-15T15:17:20;12.90;99.90
9486;DHT22;4781;48.776;9.200;2022-11-15T15:19:48;12.90;99.90
9486;DHT22;4781;48.776;9.200;2022-11-15T15:22:19;12.90;99.90
9486;DHT22;4781;48.776;9.200;2022-11-15T15:24:51;12.90;99.90
9486;DHT22;4781;48.776;9.200;2022-11-15T15:27:20;12.90;99.90
9486;DHT22;4781;48.776;9.200;2022-11-15T15:29:48;12.90;99.90
9486;DHT22;4781;48.776;9.200;2022-11-15T15:32:17;12.90;99.90
9486;DHT22;4781;48.776;9.200;2022-11-15T15:34:45;12.80;99.90
9486;DHT22;4781;48.776;9.200;2022-11-15T15:37:24;12.80;99.90
9486;DHT22;4781;48.776;9.200;2022-11-15T15:39:57;12.80;99.90
9486;DHT22;4781;48.776;9.200;2022-11-15T15:42:25;12.80;99.90
9486;DHT22;4781;48.776;9.200;2022-11-15T15:44:54;12.80;99.90
9486;DHT22;4781;48.776;9.200;2022-11-15T15:47:23;12.80;99.90
9486;DHT22;4781;48.776;9.200;2022-11-15T15:49:51;12.70;99.90
9486;DHT22;4781;48.776;9.200;2022-11-15T15:52:19;12.70;99.90
9486;DHT22;4781;48.776;9.200;2022-11-15T15:54:48;12.70;99.90
9486;DHT22;4781;48.776;9.200;2022-11-15T15:57:16;12.70;99.90
9486;DHT22;4781;48.776;9.200;2022-11-15T15:59:45;12.70;99.90
9486;DHT22;4781;48.776;9.200;2022-11-15T16:02:13;12.70;99.90
9486;DHT22;4781;48.776;9.200;2022-11-15T16:04:42;12.70;99.90
9486;DHT22;4781;48.776;9.200;2022-11-15T16:07:15;12.70;99.90
9486;DHT22;4781;48.776;9.200;2022-11-15T16:09:44;12.70;99.90
9486;DHT22;4781;48.776;9.200;2022-11-15T16:12:32;12.80;99.90
9486;DHT22;4781;48.776;9.200;2022-11-15T16:15:03;12.80;99.90
9486;DHT22;4781;48.776;9.200;2022-11-15T16:17:33;12.70;99.90
9486;DHT22;4781;48.776;9.200;2022-11-15T16:20:05;12.80;99.90
9486;DHT22;4781;48.776;9.200;2022-11-15T16:22:33;12.80;99.90
9486;DHT22;4781;48.776;9.200;2022-11-15T16:25:02;12.80;99.90
9486;DHT22;4781;48.776;9.200;2022-11-15T16:27:30;12.80;99.90
9486;DHT22;4781;48.776;9.200;2022-11-15T16:29:59;12.80;99.90
9486;DHT22;4781;48.776;9.200;2022-11-15T16:32:27;12.80;99.90
9486;DHT22;4781;48.776;9.200;2022-11-15T16:34:56;12.80;99.90
9486;DHT22;4781;48.776;9.200;2022-11-15T16:37:24;12.80;99.90
9486;DHT22;4781;48.776;9.200;2022-11-15T16:39:53;12.80;99.90
9486;DHT22;4781;48.776;9.200;2022-11-15T16:42:21;12.80;99.90
9486;DHT22;4781;48.776;9.200;2022-11-15T16:44:50;12.80;99.90
9486;DHT22;4781;48.776;9.200;2022-11-15T16:47:18;12.90;99.90
9486;DHT22;4781;48.776;9.200;2022-11-15T16:49:48;12.90;99.90
9486;DHT22;4781;48.776;9.200;2022-11-15T16:52:16;12.90;99.90
9486;DHT22;4781;48.776;9.200;2022-11-15T16:54:45;12.90;99.90
9486;DHT22;4781;48.776;9.200;2022-11-15T16:57:13;12.80;99.90
9486;DHT22;4781;48.776;9.200;2022-11-15T16:59:42;12.80;99.90
9486;DHT22;4781;48.776;9.200;2022-11-15T17:02:12;12.80;99.90
9486;DHT22;4781;48.776;9.200;2022-11-15T17:04:40;12.80;99.90
9486;DHT22;4781;48.776;9.200;2022-11-15T17:07:09;12.80;99.90
9486;DHT22;4781;48.776;9.200;2022-11-15T17:09:37;12.80;99.90
9486;DHT22;4781;48.776;9.200;2022-11-15T17:12:06;12.80;99.90
9486;DHT22;4781;48.776;9.200;2022-11-15T17:14:37;12.80;99.90
9486;DHT22;4781;48.776;9.200;2022-11-15T17:17:05;12.80;99.90
9486;DHT22;4781;48.776;9.200;2022-11-15T17:19:34;12.90;99.90
9486;DHT22;4781;48.776;9.200;2022-11-15T17:22:03;12.80;99.90
9486;DHT22;4781;48.776;9.200;2022-11-15T17:24:31;12.90;99.90
9486;DHT22;4781;48.776;9.200;2022-11-15T17:27:00;12.80;99.90
9486;DHT22;4781;48.776;9.200;2022-11-15T17:29:28;12.90;99.90
9486;DHT22;4781;48.776;9.200;2022-11-15T17:31:56;12.90;99.90
9486;DHT22;4781;48.776;9.200;2022-11-15T17:34:25;12.90;99.90
9486;DHT22;4781;48.776;9.200;2022-11-15T17:36:53;12.90;99.90
9486;DHT22;4781;48.776;9.200;2022-11-15T17:39:22;12.90;99.90
9486;DHT22;4781;48.776;9.200;2022-11-15T17:41:50;12.90;99.90
9486;DHT22;4781;48.776;9.200;2022-11-15T17:44:18;13.00;99.90
9486;DHT22;4781;48.776;9.200;2022-11-15T17:46:47;13.00;99.90
9486;DHT22;4781;48.776;9.200;2022-11-15T17:49:16;12.90;99.90
9486;DHT22;4781;48.776;9.200;2022-11-15T17:51:44;12.90;99.90
9486;DHT22;4781;48.776;9.200;2022-11-15T17:54:12;13.00;99.90
9486;DHT22;4781;48.776;9.200;2022-11-15T17:56:41;12.90;99.90
9486;DHT22;4781;48.776;9.200;2022-11-15T17:59:10;12.90;99.90
9486;DHT22;4781;48.776;9.200;2022-11-15T18:01:38;12.90;99.90
9486;DHT22;4781;48.776;9.200;2022-11-15T18:04:07;12.90;99.90
9486;DHT22;4781;48.776;9.200;2022-11-15T18:06:36;12.90;99.90
9486;DHT22;4781;48.776;9.200;2022-11-15T18:09:05;12.80;99.90
9486;DHT22;4781;48.776;9.200;2022-11-15T18:11:36;12.80;99.90
9486;DHT22;4781;48.776;9.200;2022-11-15T18:14:14;12.90;99.90
9486;DHT22;4781;48.776;9.200;2022-11-15T18:16:40;12.80;99.90
9486;DHT22;4781;48.776;9.200;2022-11-15T18:19:09;12.80;99.90
9486;DHT22;4781;48.776;9.200;2022-11-15T18:21:43;12.80;99.90
9486;DHT22;4781;48.776;9.200;2022-11-15T18:24:30;12.80;99.90
9486;DHT22;4781;48.776;9.200;2022-11-15T18:27:04;12.80;99.90
9486;DHT22;4781;48.776;9.200;2022-11-15T18:29:33;12.80;99.90
9486;DHT22;4781;48.776;9.200;2022-11-15T18:32:04;12.80;99.90